Time;durP1;ratioP1;P1;durP2;ratioP2;P2;SDS_P1;SDS_P2;PMS_P1;PMS_P2;Temp;Humidity;BMP_temperature;BMP_pressure;BME280_temperature;BME280_humidity;BME280_pressure;Samples;Min_cycle;Max_cycle;Signal;HPM_P1;HPM_P2
2022/10/02 00:01:59;;;;;;;1.85;0.70;;;11.60;99.90;;;;;;5075339;28;20045;-72
2022/10/02 00:04:48;;;;;;;1.60;0.70;;;11.60;99.90;;;;;;5062163;28;20045;-71
2022/10/02 00:07:17;;;;;;;3.40;0.90;;;11.60;99.90;;;;;;5089894;28;20035;-71
2022/10/02 00:09:55;;;;;;;4.78;0.93;;;11.60;99.90;;;;;;5078494;28;20090;-71
2022/10/02 00:12:24;;;;;;;3.17;1.10;;;11.60;99.90;;;;;;5080447;28;20122;-71
2022/10/02 00:14:53;;;;;;;2.78;0.95;;;11.60;99.90;;;;;;5072348;28;20036;-71
2022/10/02 00:17:33;;;;;;;3.40;0.73;;;11.60;99.90;;;;;;5077278;28;20046;-71
2022/10/02 00:19:59;;;;;;;1.38;0.70;;;11.70;99.90;;;;;;5079404;28;21951;-71
2022/10/02 00:22:56;;;;;;;3.72;0.95;;;11.70;99.90;;;;;;5084861;28;20036;-71
2022/10/02 00:25:27;;;;;;;3.70;1.02;;;11.70;99.90;;;;;;5111629;27;20048;-71
2022/10/02 00:28:14;;;;;;;1.42;0.68;;;11.70;99.90;;;;;;5072106;28;20044;-71
2022/10/02 00:30:59;;;;;;;1.65;0.65;;;11.70;99.90;;;;;;5086736;28;20044;-71
2022/10/02 00:33:48;;;;;;;2.15;0.77;;;11.80;99.90;;;;;;5053673;28;20036;-71
2022/10/02 00:36:40;;;;;;;6.25;1.00;;;11.70;99.90;;;;;;5070297;28;20036;-71
2022/10/02 00:39:49;;;;;;;1.52;0.73;;;11.80;99.90;;;;;;5110777;27;20043;-71
2022/10/02 00:42:29;;;;;;;2.55;0.73;;;11.70;99.90;;;;;;5110921;27;20034;-71
2022/10/02 00:45:15;;;;;;;3.58;1.00;;;11.70;99.90;;;;;;5071980;28;20036;-71
2022/10/02 00:47:59;;;;;;;4.40;0.88;;;11.70;99.90;;;;;;5056540;28;20533;-71
2022/10/02 00:50:45;;;;;;;1.33;0.55;;;11.70;99.90;;;;;;5072872;28;20047;-71
2022/10/02 00:53:30;;;;;;;;;;;11.70;99.90;;;;;;5070188;28;20068;-71
2022/10/02 00:56:11;;;;;;;2.55;0.63;;;11.70;99.90;;;;;;5070985;28;19920;-72
2022/10/02 00:59:05;;;;;;;5.53;0.75;;;11.70;99.90;;;;;;5077259;28;20052;-71
2022/10/02 01:01:54;;;;;;;1.67;0.70;;;11.70;99.90;;;;;;5083029;28;20047;-71
2022/10/02 01:04:32;;;;;;;2.10;0.70;;;11.70;99.90;;;;;;5072010;28;20167;-71
2022/10/02 01:06:58;;;;;;;1.40;0.68;;;11.70;99.90;;;;;;5085235;28;20502;-71
2022/10/02 01:09:24;;;;;;;1.00;0.50;;;11.70;99.90;;;;;;5079606;28;20055;-71
2022/10/02 01:11:51;;;;;;;3.90;0.30;;;11.60;99.90;;;;;;5109490;27;20068;-71
2022/10/02 01:14:16;;;;;;;0.98;0.47;;;11.70;99.90;;;;;;5075408;28;20869;-71
2022/10/02 01:16:43;;;;;;;0.47;0.30;;;11.70;99.90;;;;;;5080487;28;20040;-71
2022/10/02 01:19:31;;;;;;;2.63;0.50;;;11.70;99.90;;;;;;5060067;28;20079;-72
2022/10/02 01:22:31;;;;;;;2.28;0.57;;;11.60;99.90;;;;;;5075826;28;20141;-71
2022/10/02 01:25:00;;;;;;;2.03;0.70;;;11.70;99.90;;;;;;5062968;28;20972;-71
2022/10/02 01:27:26;;;;;;;1.35;0.43;;;11.60;99.90;;;;;;5085017;28;20045;-71
2022/10/02 01:30:02;;;;;;;2.75;0.60;;;11.60;99.90;;;;;;5053747;28;20029;-71
2022/10/02 01:32:28;;;;;;;1.00;0.43;;;11.60;99.90;;;;;;5077044;28;20047;-71
2022/10/02 01:34:55;;;;;;;2.17;0.60;;;11.50;99.90;;;;;;5076132;28;20122;-71
2022/10/02 01:37:25;;;;;;;1.45;0.60;;;11.60;99.90;;;;;;5086293;28;20084;-71
2022/10/02 01:39:51;;;;;;;1.25;0.30;;;11.50;99.90;;;;;;5071792;28;20119;-71
2022/10/02 01:42:17;;;;;;;1.42;0.30;;;11.60;99.90;;;;;;5067518;28;20056;-71
2022/10/02 01:44:44;;;;;;;1.77;0.32;;;11.60;99.90;;;;;;5084725;28;20081;-71
2022/10/02 01:47:35;;;;;;;1.98;0.60;;;11.60;99.90;;;;;;5066732;28;20054;-71
2022/10/02 01:50:21;;;;;;;3.25;0.52;;;11.60;99.90;;;;;;5049514;28;20098;-71
2022/10/02 01:53:13;;;;;;;1.58;0.82;;;11.60;99.90;;;;;;5057092;28;20051;-71
2022/10/02 01:55:44;;;;;;;1.25;0.40;;;11.60;99.90;;;;;;5101944;27;20050;-71
2022/10/02 01:58:34;;;;;;;6.75;1.20;;;11.60;99.90;;;;;;5081746;28;20086;-71
2022/10/02 02:01:11;;;;;;;1.35;0.63;;;11.60;99.90;;;;;;5078844;28;20799;-71
2022/10/02 02:03:58;;;;;;;2.22;0.68;;;11.60;99.90;;;;;;5066648;28;20043;-71
2022/10/02 02:06:54;;;;;;;2.88;0.70;;;11.60;99.90;;;;;;5096288;28;20049;-71
2022/10/02 02:09:50;;;;;;;8.10;0.88;;;11.60;99.90;;;;;;5074641;28;20094;-71
2022/10/02 02:12:27;;;;;;;6.13;0.73;;;11.60;99.90;;;;;;5060603;28;20035;-71
2022/10/02 02:15:08;;;;;;;1.85;0.68;;;11.60;99.90;;;;;;5070519;28;20521;-71
2022/10/02 02:17:58;;;;;;;0.65;0.60;;;11.60;99.90;;;;;;5089068;27;20044;-72
2022/10/02 02:20:37;;;;;;;5.30;0.80;;;11.60;99.90;;;;;;5065081;28;20051;-71
2022/10/02 02:23:09;;;;;;;5.68;0.60;;;11.60;99.90;;;;;;5101381;27;20040;-71
2022/10/02 02:25:39;;;;;;;5.15;0.90;;;11.60;99.90;;;;;;5077977;28;20819;-71
2022/10/02 02:28:11;;;;;;;5.45;0.80;;;11.60;99.90;;;;;;5082959;28;20044;-71
2022/10/02 02:30:42;;;;;;;2.10;0.47;;;11.60;99.90;;;;;;5068927;28;20047;-72
2022/10/02 02:33:15;;;;;;;1.50;0.55;;;11.60;99.90;;;;;;5081339;28;20055;-71
2022/10/02 02:35:48;;;;;;;1.35;0.63;;;11.60;99.90;;;;;;5074310;28;20040;-71
2022/10/02 02:38:23;;;;;;;2.40;0.70;;;11.60;99.90;;;;;;5085374;28;20044;-71
2022/10/02 02:40:50;;;;;;;1.90;0.70;;;11.60;99.90;;;;;;5061348;28;20474;-72
2022/10/02 02:43:28;;;;;;;3.70;0.80;;;11.60;99.90;;;;;;5071308;28;20085;-72
2022/10/02 02:45:55;;;;;;;2.63;0.60;;;11.50;99.90;;;;;;5056108;28;20472;-71
2022/10/02 02:48:33;;;;;;;1.95;0.65;;;11.60;99.90;;;;;;5085162;28;20039;-71
2022/10/02 02:51:05;;;;;;;4.93;0.95;;;11.50;99.90;;;;;;5074398;28;21952;-72
2022/10/02 02:53:37;;;;;;;1.90;0.60;;;11.60;99.90;;;;;;5049456;28;20033;-71
2022/10/02 02:56:07;;;;;;;1.10;0.45;;;11.60;99.90;;;;;;5053714;28;20101;-71
2022/10/02 02:58:42;;;;;;;1.35;0.50;;;11.60;99.90;;;;;;5076432;28;20118;-71
2022/10/02 03:01:08;;;;;;;0.50;0.40;;;11.60;99.90;;;;;;5078358;28;20047;-72
2022/10/02 03:03:33;;;;;;;0.88;0.50;;;11.60;99.90;;;;;;5083784;28;20032;-71
2022/10/02 03:06:21;;;;;;;1.02;0.65;;;11.60;99.90;;;;;;5084652;28;20123;-72
2022/10/02 03:08:50;;;;;;;2.17;0.40;;;11.60;99.90;;;;;;5068168;28;20264;-72
2022/10/02 03:11:36;;;;;;;2.45;0.52;;;11.60;99.90;;;;;;5071754;28;20402;-71
2022/10/02 03:15:03;;;;;;;8.55;0.63;;;11.60;99.90;;;;;;5062295;28;20037;-71
2022/10/02 03:17:49;;;;;;;0.73;0.50;;;11.60;99.90;;;;;;5019793;28;20049;-71
2022/10/02 03:20:41;;;;;;;2.78;1.10;;;11.70;99.90;;;;;;5066305;28;20083;-72
2022/10/02 03:23:14;;;;;;;1.17;0.73;;;11.70;99.90;;;;;;5078882;28;20093;-72
2022/10/02 03:26:01;;;;;;;1.30;0.55;;;11.70;99.90;;;;;;5066037;28;20509;-71
2022/10/02 03:28:35;;;;;;;1.90;0.57;;;11.70;99.90;;;;;;5065707;28;20044;-71
2022/10/02 03:31:02;;;;;;;2.08;0.73;;;11.70;99.90;;;;;;5076054;28;20036;-71
2022/10/02 03:33:32;;;;;;;2.38;0.85;;;11.80;99.90;;;;;;5054965;28;20749;-71
2022/10/02 03:35:58;;;;;;;0.93;0.43;;;11.70;99.90;;;;;;5082769;28;20040;-71
2022/10/02 03:38:26;;;;;;;1.95;0.32;;;11.80;99.90;;;;;;5074849;28;20040;-71
2022/10/02 03:40:56;;;;;;;2.72;0.50;;;11.80;99.90;;;;;;5067330;28;20155;-72
2022/10/02 03:43:24;;;;;;;0.55;0.40;;;11.80;99.90;;;;;;5084994;28;20165;-71
2022/10/02 03:45:50;;;;;;;1.83;0.82;;;11.70;99.90;;;;;;5067623;28;20032;-72
2022/10/02 03:48:16;;;;;;;2.92;0.50;;;11.80;99.90;;;;;;5067363;28;20787;-72
2022/10/02 03:50:42;;;;;;;7.28;1.10;;;11.70;99.90;;;;;;5070384;28;20406;-71
2022/10/02 03:53:17;;;;;;;3.35;0.70;;;11.70;99.90;;;;;;5065143;28;20048;-71
2022/10/02 03:56:06;;;;;;;1.10;0.50;;;11.70;99.90;;;;;;5084552;28;20041;-71
2022/10/02 03:58:33;;;;;;;2.75;0.68;;;11.80;99.90;;;;;;5055326;28;20068;-71
2022/10/02 04:01:15;;;;;;;4.45;0.60;;;11.70;99.90;;;;;;5067577;28;20119;-72
2022/10/02 04:03:54;;;;;;;1.00;0.38;;;11.70;99.90;;;;;;5068962;28;20093;-71
2022/10/02 04:06:27;;;;;;;3.00;0.52;;;11.70;99.90;;;;;;5076863;28;20037;-71
2022/10/02 04:09:05;;;;;;;1.27;0.40;;;11.70;99.90;;;;;;5066685;28;20059;-71
2022/10/02 04:11:35;;;;;;;1.05;0.50;;;11.70;99.90;;;;;;5076891;28;20043;-71
2022/10/02 04:14:08;;;;;;;3.47;0.73;;;11.60;99.90;;;;;;5082569;28;20052;-71
2022/10/02 04:16:55;;;;;;;2.88;0.50;;;11.60;99.90;;;;;;5079071;28;20039;-71
2022/10/02 04:19:24;;;;;;;1.80;0.40;;;11.60;99.90;;;;;;5074167;28;20053;-71
2022/10/02 04:22:12;;;;;;;1.35;0.50;;;11.60;99.90;;;;;;5076573;28;20040;-71
2022/10/02 04:24:47;;;;;;;0.52;0.35;;;11.60;99.90;;;;;;5067116;28;20645;-71
2022/10/02 04:27:20;;;;;;;0.63;0.30;;;11.50;99.90;;;;;;5068939;28;20036;-71
2022/10/02 04:29:56;;;;;;;1.98;0.55;;;11.50;99.90;;;;;;5067765;28;20045;-71
2022/10/02 04:32:28;;;;;;;1.45;0.47;;;11.50;99.90;;;;;;5080204;28;20048;-71
2022/10/02 04:34:54;;;;;;;7.10;0.90;;;11.50;99.90;;;;;;5086790;28;20242;-71
2022/10/02 04:37:41;;;;;;;1.80;0.50;;;11.50;99.90;;;;;;5070207;28;20514;-72
2022/10/02 04:40:53;;;;;;;1.10;0.32;;;11.40;99.90;;;;;;5076279;28;20044;-71
2022/10/02 04:43:41;;;;;;;0.88;0.22;;;11.40;99.90;;;;;;5063326;28;20498;-71
2022/10/02 04:46:33;;;;;;;1.35;0.40;;;11.40;99.90;;;;;;5077314;28;20048;-71
2022/10/02 04:49:36;;;;;;;1.38;0.20;;;11.40;99.90;;;;;;5053869;28;20037;-72
2022/10/02 04:52:31;;;;;;;0.40;0.30;;;11.40;99.90;;;;;;5072973;28;20088;-71
2022/10/02 04:55:21;;;;;;;6.35;0.95;;;11.40;99.90;;;;;;5096524;27;20047;-72
2022/10/02 04:58:31;;;;;;;1.67;0.40;;;11.30;99.90;;;;;;5073141;28;20461;-72
2022/10/02 05:01:21;;;;;;;0.40;0.30;;;11.30;99.90;;;;;;5097151;27;20044;-71
2022/10/02 05:03:58;;;;;;;3.45;0.43;;;11.30;99.90;;;;;;5078087;28;20044;-72
2022/10/02 05:06:55;;;;;;;0.40;0.25;;;11.30;99.90;;;;;;5081445;28;20044;-71
2022/10/02 05:09:36;;;;;;;0.50;0.30;;;11.30;99.90;;;;;;5053971;28;20163;-72
2022/10/02 05:12:27;;;;;;;1.38;0.50;;;11.30;99.90;;;;;;5066230;28;20032;-72
2022/10/02 05:15:27;;;;;;;1.48;0.30;;;11.30;99.90;;;;;;5072935;28;20037;-72
2022/10/02 05:18:16;;;;;;;2.30;0.45;;;11.30;99.90;;;;;;5073685;28;20044;-72
2022/10/02 05:21:00;;;;;;;0.98;0.30;;;11.20;99.90;;;;;;5075719;28;20051;-72
2022/10/02 05:23:51;;;;;;;4.00;0.52;;;11.20;99.90;;;;;;5078387;28;20032;-72
2022/10/02 05:26:45;;;;;;;2.70;0.65;;;11.20;99.90;;;;;;5059570;28;20053;-71
2022/10/02 05:29:23;;;;;;;2.38;0.82;;;11.20;99.90;;;;;;5090440;28;20040;-71
2022/10/02 05:32:07;;;;;;;2.55;0.85;;;11.20;99.90;;;;;;5075798;28;20044;-72
2022/10/02 05:34:47;;;;;;;1.00;0.50;;;11.20;99.90;;;;;;5064956;28;20041;-71
2022/10/02 05:37:38;;;;;;;4.85;0.57;;;11.20;99.90;;;;;;5080480;28;20037;-71
2022/10/02 05:40:25;;;;;;;1.25;0.60;;;11.20;99.90;;;;;;5067473;28;20076;-71
2022/10/02 05:43:00;;;;;;;0.52;0.25;;;11.20;99.90;;;;;;5076465;28;20052;-72
2022/10/02 05:45:43;;;;;;;4.60;0.70;;;11.20;99.90;;;;;;5082472;28;20040;-71
2022/10/02 05:48:17;;;;;;;1.65;0.63;;;11.10;99.90;;;;;;5086508;28;20040;-71
2022/10/02 05:50:47;;;;;;;0.85;0.40;;;11.20;99.90;;;;;;5038725;28;20037;-72
2022/10/02 05:53:35;;;;;;;2.75;0.68;;;11.20;99.90;;;;;;5074457;28;20130;-72
2022/10/02 05:56:11;;;;;;;0.80;0.32;;;11.10;99.90;;;;;;5082322;28;20112;-71
2022/10/02 05:59:04;;;;;;;1.13;0.30;;;11.20;99.90;;;;;;5068390;28;20060;-72
2022/10/02 06:01:36;;;;;;;4.13;0.60;;;11.20;99.90;;;;;;5078602;27;21088;-72
2022/10/02 06:04:10;;;;;;;0.77;0.50;;;11.10;99.90;;;;;;5070024;28;20037;-72
2022/10/02 06:06:43;;;;;;;3.95;0.75;;;11.20;99.90;;;;;;5073707;28;20052;-72
2022/10/02 06:09:21;;;;;;;0.77;0.38;;;11.10;99.90;;;;;;5116005;27;20047;-72
2022/10/02 06:12:03;;;;;;;3.30;0.28;;;11.20;99.90;;;;;;5067169;28;20036;-72
2022/10/02 06:14:46;;;;;;;1.25;0.40;;;11.10;99.90;;;;;;5073220;28;20104;-72
2022/10/02 06:17:19;;;;;;;1.63;0.47;;;11.20;99.90;;;;;;5076621;28;20036;-71
2022/10/02 06:20:24;;;;;;;1.95;0.65;;;11.20;99.90;;;;;;5073071;28;20489;-71
2022/10/02 06:22:58;;;;;;;0.82;0.60;;;11.10;99.90;;;;;;5076815;28;20405;-71
2022/10/02 06:25:46;;;;;;;4.32;0.82;;;11.20;99.90;;;;;;5048962;28;20053;-72
2022/10/02 06:28:22;;;;;;;0.85;0.43;;;11.20;99.90;;;;;;5083918;28;20048;-72
2022/10/02 06:31:32;;;;;;;1.77;0.70;;;11.20;99.90;;;;;;5081779;28;20040;-72
2022/10/02 06:33:58;;;;;;;0.90;0.52;;;11.30;99.90;;;;;;5074527;28;20045;-72
2022/10/02 06:36:31;;;;;;;2.22;0.63;;;11.30;99.90;;;;;;5082807;28;20043;-72
2022/10/02 06:39:27;;;;;;;4.78;0.63;;;11.30;99.90;;;;;;5064488;28;20079;-72
2022/10/02 06:41:56;;;;;;;3.92;0.50;;;11.30;99.90;;;;;;5050814;28;20486;-72
2022/10/02 06:44:40;;;;;;;3.17;0.88;;;11.30;99.90;;;;;;5089559;28;20097;-72
2022/10/02 06:47:33;;;;;;;0.93;0.57;;;11.30;99.90;;;;;;5069670;28;20048;-72
2022/10/02 06:50:18;;;;;;;0.65;0.40;;;11.40;99.90;;;;;;5074386;28;20116;-71
2022/10/02 06:52:56;;;;;;;1.65;0.77;;;11.40;99.90;;;;;;5060865;28;20047;-73
2022/10/02 06:55:40;;;;;;;2.40;0.47;;;11.50;99.90;;;;;;5060057;28;20455;-71
2022/10/02 06:58:39;;;;;;;0.82;0.40;;;11.50;99.90;;;;;;5057441;28;20052;-72
2022/10/02 07:01:19;;;;;;;1.23;0.65;;;11.50;99.90;;;;;;5071326;28;20089;-72
2022/10/02 07:03:54;;;;;;;5.90;1.02;;;11.60;99.90;;;;;;5071008;28;20044;-72
2022/10/02 07:06:34;;;;;;;0.85;0.32;;;11.60;99.90;;;;;;5052342;28;20064;-73
2022/10/02 07:09:03;;;;;;;1.92;0.52;;;11.70;99.90;;;;;;5064193;28;20045;-72
2022/10/02 07:11:48;;;;;;;1.50;0.60;;;11.70;99.90;;;;;;5058961;28;20052;-72
2022/10/02 07:14:44;;;;;;;5.72;0.75;;;11.80;99.90;;;;;;5063073;28;20044;-72
2022/10/02 07:17:21;;;;;;;2.30;0.63;;;11.90;99.90;;;;;;5079835;28;20044;-72
2022/10/02 07:19:59;;;;;;;3.78;0.60;;;12.00;99.90;;;;;;5068427;28;20056;-72
2022/10/02 07:22:33;;;;;;;2.80;0.45;;;12.20;99.90;;;;;;5071140;28;20135;-72
2022/10/02 07:25:19;;;;;;;6.43;0.80;;;12.20;99.90;;;;;;5068402;28;20080;-72
2022/10/02 07:28:23;;;;;;;0.20;0.17;;;12.30;99.90;;;;;;5066031;28;20064;-72
2022/10/02 07:31:17;;;;;;;3.55;0.63;;;12.40;99.90;;;;;;5063641;28;20047;-72
2022/10/02 07:34:00;;;;;;;0.75;0.38;;;12.50;99.90;;;;;;5071735;28;20044;-72
2022/10/02 07:36:36;;;;;;;3.17;0.55;;;12.50;99.90;;;;;;5061667;28;20090;-72
2022/10/02 07:39:11;;;;;;;2.20;1.02;;;12.50;99.90;;;;;;5085340;28;20079;-72
2022/10/02 07:41:45;;;;;;;7.80;0.88;;;12.60;99.90;;;;;;5086058;27;20075;-72
2022/10/02 07:44:48;;;;;;;3.10;0.73;;;12.60;99.90;;;;;;5053489;28;20486;-72
2022/10/02 07:47:26;;;;;;;1.33;0.52;;;12.60;99.90;;;;;;5071697;28;20039;-72
2022/10/02 07:50:06;;;;;;;1.05;0.40;;;12.60;99.90;;;;;;5070669;28;20041;-72
2022/10/02 07:52:41;;;;;;;1.58;0.63;;;12.60;99.90;;;;;;5060149;28;20049;-73
2022/10/02 07:55:17;;;;;;;3.83;0.57;;;12.60;99.90;;;;;;5053774;28;20032;-72
2022/10/02 07:58:03;;;;;;;4.45;0.75;;;12.50;99.90;;;;;;5068923;28;20352;-79
2022/10/02 08:00:50;;;;;;;2.40;0.75;;;12.50;99.90;;;;;;5062411;28;20040;-68
2022/10/02 08:03:20;;;;;;;0.98;0.50;;;12.50;99.90;;;;;;5054512;28;20123;-73
2022/10/02 08:09:11;;;;;;;1.08;0.50;;;12.50;99.90;;;;;;3595802;22;20119;-71
2022/10/02 08:11:51;;;;;;;1.10;0.50;;;12.50;99.90;;;;;;5016370;28;20042;-71
2022/10/02 08:14:47;;;;;;;1.00;0.43;;;12.70;99.90;;;;;;5005150;28;20033;-71
2022/10/02 08:18:00;;;;;;;1.13;0.52;;;12.80;99.90;;;;;;4998068;28;20046;-71
2022/10/02 08:24:46;;;;;;;1.45;0.47;;;12.90;99.90;;;;;;4999295;28;20305;-71
2022/10/02 08:27:49;;;;;;;0.37;0.30;;;12.90;99.90;;;;;;4980493;28;20075;-71
2022/10/02 08:30:15;;;;;;;2.75;0.63;;;13.00;99.90;;;;;;4981230;28;20042;-71
2022/10/02 08:32:46;;;;;;;2.28;0.65;;;13.10;99.90;;;;;;4986278;28;20085;-70
2022/10/02 08:39:45;;;;;;;0.98;0.55;;;13.20;99.90;;;;;;5001893;28;20091;-70
2022/10/02 08:42:55;;;;;;;5.28;0.52;;;13.20;99.90;;;;;;4986292;28;20042;-70
2022/10/02 08:49:44;;;;;;;1.90;0.65;;;13.40;99.90;;;;;;5018981;28;20077;-70
2022/10/02 08:56:43;;;;;;;3.63;0.82;;;13.50;99.90;;;;;;5016714;28;20176;-70
2022/10/02 08:59:36;;;;;;;3.17;0.73;;;13.50;99.90;;;;;;4998495;28;20049;-70
2022/10/02 09:02:39;;;;;;;2.33;0.70;;;13.60;99.90;;;;;;4991942;28;20589;-71
2022/10/02 09:05:24;;;;;;;2.67;0.70;;;13.70;99.90;;;;;;5012012;28;20041;-71
2022/10/02 09:08:25;;;;;;;0.97;0.50;;;13.70;99.90;;;;;;5009303;28;20116;-70
2022/10/02 09:11:29;;;;;;;1.58;0.60;;;13.80;99.90;;;;;;4994979;28;20715;-71
2022/10/02 09:14:33;;;;;;;1.10;0.50;;;13.80;99.90;;;;;;5008248;28;20594;-71
2022/10/02 09:17:17;;;;;;;1.90;0.60;;;13.80;99.90;;;;;;5004595;28;20137;-71
2022/10/02 09:20:05;;;;;;;1.50;0.65;;;13.80;99.90;;;;;;5015765;28;20134;-71
2022/10/02 09:23:08;;;;;;;2.05;1.00;;;13.90;99.90;;;;;;5018456;28;20049;-71
2022/10/02 09:25:36;;;;;;;3.63;0.90;;;13.90;99.90;;;;;;5012982;28;20057;-71
2022/10/02 09:28:04;;;;;;;1.27;0.70;;;14.00;99.90;;;;;;5013151;28;20053;-71
2022/10/02 09:31:13;;;;;;;1.40;0.60;;;14.00;99.90;;;;;;5010161;28;20045;-71
2022/10/02 09:34:17;;;;;;;5.10;0.73;;;14.20;99.90;;;;;;4995006;28;20087;-71
2022/10/02 09:37:27;;;;;;;2.30;0.47;;;14.30;99.90;;;;;;5012511;28;20047;-71
2022/10/02 09:40:31;;;;;;;7.38;0.90;;;14.40;99.90;;;;;;4995694;28;20088;-72
2022/10/02 09:43:06;;;;;;;3.03;0.70;;;14.40;99.90;;;;;;5009961;28;20048;-71
2022/10/02 09:45:47;;;;;;;4.03;0.70;;;14.30;99.90;;;;;;5011178;28;20053;-71
2022/10/02 09:48:30;;;;;;;0.88;0.50;;;13.90;99.90;;;;;;5010410;28;20053;-71
2022/10/02 09:51:15;;;;;;;1.75;0.68;;;13.60;99.90;;;;;;4995814;28;20045;-71
2022/10/02 09:54:12;;;;;;;3.22;0.80;;;13.30;99.90;;;;;;4992754;28;20034;-71
2022/10/02 09:57:02;;;;;;;1.75;0.30;;;13.20;99.90;;;;;;5014357;28;20048;-71
2022/10/02 09:59:40;;;;;;;5.10;1.05;;;13.00;99.90;;;;;;5009420;28;20144;-70
2022/10/02 10:02:43;;;;;;;2.20;0.55;;;12.90;99.90;;;;;;5005070;28;20046;-71
2022/10/02 10:05:49;;;;;;;1.23;0.40;;;12.90;99.90;;;;;;5010136;28;20049;-70
2022/10/02 10:08:41;;;;;;;1.15;0.52;;;12.90;99.90;;;;;;4991201;28;20053;-70
2022/10/02 10:11:28;;;;;;;1.23;0.63;;;12.90;99.90;;;;;;5011051;28;20325;-70
2022/10/02 10:14:24;;;;;;;1.50;0.85;;;12.90;99.90;;;;;;5008992;28;20505;-70
2022/10/02 10:17:25;;;;;;;1.42;0.70;;;13.00;99.90;;;;;;5005740;28;20049;-70
2022/10/02 10:20:08;;;;;;;0.88;0.40;;;13.10;99.90;;;;;;4999402;28;20075;-70
2022/10/02 10:22:50;;;;;;;2.50;0.60;;;13.10;99.90;;;;;;5011309;28;20461;-70
2022/10/02 10:25:41;;;;;;;2.08;0.40;;;13.20;99.90;;;;;;5007492;28;20048;-71
2022/10/02 10:28:16;;;;;;;1.00;0.50;;;13.30;99.90;;;;;;5007239;28;20069;-70
2022/10/02 10:31:30;;;;;;;9.48;0.98;;;13.20;99.90;;;;;;5011984;28;20107;-70
2022/10/02 10:34:12;;;;;;;2.40;0.35;;;13.10;99.90;;;;;;5017606;28;20050;-70
2022/10/02 10:39:47;;;;;;;3.72;0.55;;;13.00;99.90;;;;;;5014010;28;20561;-70
2022/10/02 10:42:55;;;;;;;3.92;0.73;;;12.90;99.90;;;;;;5011200;28;20562;-70
2022/10/02 10:45:54;;;;;;;4.82;0.75;;;12.80;99.90;;;;;;5028126;28;20124;-71
2022/10/02 10:48:49;;;;;;;2.15;0.40;;;12.90;99.90;;;;;;5012679;28;20053;-71
2022/10/02 10:51:42;;;;;;;2.85;0.60;;;12.90;99.90;;;;;;5014179;28;20510;-70
2022/10/02 10:54:53;;;;;;;0.45;0.30;;;13.00;99.90;;;;;;5012430;28;20080;-70
2022/10/02 10:57:44;;;;;;;1.85;0.50;;;13.20;99.90;;;;;;5010078;28;20056;-71
2022/10/02 11:00:25;;;;;;;2.15;0.85;;;13.30;99.90;;;;;;4997151;28;20045;-70
2022/10/02 11:03:09;;;;;;;3.20;0.57;;;13.40;99.90;;;;;;5003246;28;20049;-70
2022/10/02 11:05:50;;;;;;;2.85;0.60;;;13.50;99.90;;;;;;4991534;28;20384;-70
2022/10/02 11:08:59;;;;;;;0.77;0.30;;;13.50;99.90;;;;;;5014587;28;20096;-70
2022/10/02 11:11:33;;;;;;;2.85;0.30;;;13.50;99.90;;;;;;4993432;28;20049;-70
2022/10/02 11:14:39;;;;;;;1.48;0.63;;;13.50;99.90;;;;;;4996632;28;20037;-71
2022/10/02 11:17:08;;;;;;;2.80;0.40;;;13.40;99.90;;;;;;4993549;28;20099;-70
2022/10/02 11:19:50;;;;;;;3.95;0.70;;;13.30;99.90;;;;;;5006028;28;20537;-70
2022/10/02 11:23:01;;;;;;;9.68;0.65;;;13.30;99.90;;;;;;5009627;28;20073;-70
2022/10/02 11:25:32;;;;;;;2.92;0.70;;;13.20;99.90;;;;;;5006217;28;20731;-70
2022/10/02 11:28:21;;;;;;;2.28;0.30;;;13.20;99.90;;;;;;5012333;28;20056;-70
2022/10/02 11:31:05;;;;;;;3.22;0.57;;;13.10;99.90;;;;;;5023656;28;20156;-70
2022/10/02 11:33:49;;;;;;;4.95;0.50;;;13.10;99.90;;;;;;5001192;28;20073;-70
2022/10/02 11:36:23;;;;;;;0.90;0.28;;;13.10;99.90;;;;;;5023165;28;20556;-70
2022/10/02 11:39:13;;;;;;;2.63;0.60;;;13.20;99.90;;;;;;5013530;28;20092;-70
2022/10/02 11:42:04;;;;;;;9.10;0.50;;;13.20;99.90;;;;;;5019473;28;20049;-70
2022/10/02 11:45:07;;;;;;;1.88;0.30;;;13.20;99.90;;;;;;5009969;28;20065;-70
2022/10/02 11:48:11;;;;;;;2.95;0.60;;;13.20;99.90;;;;;;5000404;28;20367;-70
2022/10/02 11:51:14;;;;;;;4.80;0.45;;;13.10;99.90;;;;;;5005993;28;20037;-70
2022/10/02 11:53:49;;;;;;;5.50;0.55;;;13.10;99.90;;;;;;5023145;28;20045;-70
2022/10/02 11:56:31;;;;;;;4.03;0.82;;;13.20;99.90;;;;;;5023947;28;20123;-70
2022/10/02 11:59:28;;;;;;;5.50;0.55;;;13.30;99.90;;;;;;5021775;28;20041;-70
2022/10/02 12:02:09;;;;;;;2.88;0.77;;;13.30;99.90;;;;;;5006071;28;20306;-70
2022/10/02 12:05:25;;;;;;;1.58;0.55;;;13.20;99.90;;;;;;5022089;28;20049;-70
2022/10/02 12:08:13;;;;;;;6.53;0.85;;;13.10;99.90;;;;;;5006373;28;20065;-70
2022/10/02 12:10:58;;;;;;;5.63;0.40;;;13.00;99.90;;;;;;5016419;28;20049;-70
2022/10/02 12:13:27;;;;;;;2.47;0.25;;;13.00;99.90;;;;;;5014599;28;20037;-70
2022/10/02 12:16:15;;;;;;;0.93;0.40;;;12.90;99.90;;;;;;5019360;28;20042;-70
2022/10/02 12:18:50;;;;;;;1.85;0.40;;;12.90;99.90;;;;;;5018673;28;20048;-71
2022/10/02 12:27:44;;;;;;;3.63;0.32;;;12.90;99.90;;;;;;5012961;28;20046;-70
2022/10/02 12:30:14;;;;;;;2.58;0.30;;;12.90;99.90;;;;;;5013006;28;20046;-71
2022/10/02 12:33:02;;;;;;;2.55;0.38;;;12.90;99.90;;;;;;5007413;28;20115;-70
2022/10/02 12:35:54;;;;;;;7.53;3.80;;;12.90;99.90;;;;;;5026314;28;20040;-70
2022/10/02 12:38:46;;;;;;;2.30;0.73;;;12.90;99.90;;;;;;5013241;28;21078;-70
2022/10/02 12:41:32;;;;;;;7.88;1.25;;;13.10;99.90;;;;;;5010770;28;20393;-70
2022/10/02 12:44:15;;;;;;;;;;;13.20;99.90;;;;;;5018470;28;20037;-70
2022/10/02 12:47:09;;;;;;;3.70;0.40;;;13.30;99.90;;;;;;5011764;28;19921;-71
2022/10/02 12:50:07;;;;;;;0.73;0.30;;;13.40;99.90;;;;;;4998996;28;20034;-71
2022/10/02 12:53:07;;;;;;;2.40;0.40;;;13.60;99.90;;;;;;5015259;28;20441;-71
2022/10/02 12:55:42;;;;;;;2.88;0.60;;;13.80;99.90;;;;;;4996471;28;20045;-70
2022/10/02 12:58:16;;;;;;;1.35;0.50;;;14.00;99.90;;;;;;5013599;28;20037;-70
2022/10/02 13:00:59;;;;;;;2.33;0.65;;;14.10;99.90;;;;;;5014340;28;20045;-70
2022/10/02 13:04:15;;;;;;;3.33;0.82;;;14.20;99.90;;;;;;5013257;28;20038;-70
2022/10/02 13:07:18;;;;;;;2.55;0.38;;;14.20;99.90;;;;;;5010476;28;20239;-70
2022/10/02 13:09:56;;;;;;;1.45;0.43;;;14.20;99.90;;;;;;5012679;28;21471;-70
2022/10/02 13:12:49;;;;;;;3.50;0.50;;;14.10;99.90;;;;;;5014414;28;20093;-71
2022/10/02 13:15:24;;;;;;;1.45;0.55;;;14.00;99.90;;;;;;5012562;28;20037;-71
2022/10/02 13:18:24;;;;;;;2.95;0.57;;;14.10;99.90;;;;;;5014002;28;20045;-71
2022/10/02 13:21:10;;;;;;;0.88;0.30;;;14.10;99.90;;;;;;5016993;28;20053;-70
2022/10/02 13:23:36;;;;;;;2.03;0.57;;;14.10;99.90;;;;;;5012877;28;20040;-71
2022/10/02 13:26:14;;;;;;;4.00;0.57;;;14.20;99.90;;;;;;5010361;28;20053;-71
2022/10/02 13:29:12;;;;;;;0.30;0.10;;;14.30;99.90;;;;;;5012972;28;20722;-71
2022/10/02 13:31:56;;;;;;;1.08;0.30;;;14.30;99.90;;;;;;5014768;28;20506;-71
2022/10/02 13:34:22;;;;;;;2.03;0.40;;;14.40;99.90;;;;;;5013858;28;20045;-71
2022/10/02 13:37:41;;;;;;;2.08;0.30;;;14.50;99.90;;;;;;5017038;28;20029;-71
2022/10/02 13:40:31;;;;;;;2.08;0.40;;;14.50;99.90;;;;;;4999570;28;20045;-71
2022/10/02 13:43:33;;;;;;;2.63;0.52;;;14.60;99.90;;;;;;5011921;28;20048;-71
2022/10/02 13:46:12;;;;;;;2.22;0.77;;;14.70;99.90;;;;;;5009508;28;20052;-71
2022/10/02 13:49:06;;;;;;;1.02;0.28;;;14.70;99.90;;;;;;5009931;28;20052;-70
2022/10/02 13:51:48;;;;;;;1.48;0.57;;;14.60;99.90;;;;;;5012847;28;20072;-71
2022/10/02 13:54:37;;;;;;;4.85;0.30;;;14.60;99.90;;;;;;5009225;28;20045;-71
2022/10/02 13:57:39;;;;;;;3.38;0.60;;;14.50;99.90;;;;;;5029761;28;20091;-71
2022/10/02 14:00:21;;;;;;;3.42;0.50;;;14.40;99.90;;;;;;5011849;28;20045;-71
2022/10/02 14:03:22;;;;;;;2.28;0.45;;;14.40;99.90;;;;;;5013926;28;20064;-71
2022/10/02 14:06:15;;;;;;;3.60;0.70;;;14.50;99.90;;;;;;5017107;28;20406;-71
2022/10/02 14:09:13;;;;;;;6.43;0.80;;;14.50;99.90;;;;;;5014327;28;20061;-71
2022/10/02 14:12:08;;;;;;;5.95;1.20;;;14.60;99.90;;;;;;5014302;28;20557;-71
2022/10/02 14:15:04;;;;;;;4.85;0.57;;;14.60;99.90;;;;;;4993781;28;21660;-71
2022/10/02 14:17:57;;;;;;;4.50;0.63;;;14.60;99.90;;;;;;5015253;28;20037;-71
2022/10/02 14:20:41;;;;;;;0.73;0.30;;;14.60;99.90;;;;;;5014083;28;20037;-71
2022/10/02 14:23:23;;;;;;;2.70;0.50;;;14.60;99.90;;;;;;5012837;28;20128;-71
2022/10/02 14:26:07;;;;;;;2.15;0.55;;;14.60;99.90;;;;;;5012613;28;20383;-71
2022/10/02 14:29:00;;;;;;;5.00;0.60;;;14.60;99.90;;;;;;5010210;28;20175;-71
2022/10/02 14:31:41;;;;;;;3.90;0.75;;;14.60;99.90;;;;;;5014065;28;20438;-71
2022/10/02 14:34:28;;;;;;;0.57;0.30;;;14.60;99.90;;;;;;5012397;28;20037;-71
2022/10/02 14:37:20;;;;;;;4.97;0.70;;;14.60;99.90;;;;;;5013592;28;20038;-71
2022/10/02 14:39:48;;;;;;;5.63;0.82;;;14.70;99.90;;;;;;4989125;28;20037;-71
2022/10/02 14:42:29;;;;;;;0.82;0.22;;;14.70;99.90;;;;;;5006515;28;20048;-69
2022/10/02 14:45:33;;;;;;;5.20;0.50;;;14.70;99.90;;;;;;5011186;28;20129;-71